createdAt,value
2022-12-18T00:00:31.960Z,49.50
2022-12-18T00:03:39.239Z,54.22
2022-12-18T00:06:43.955Z,58.30
2022-12-18T00:09:49.010Z,64.07
2022-12-18T00:12:52.603Z,58.28
2022-12-18T00:15:56.797Z,76.18
2022-12-18T00:19:01.502Z,86.28
2022-12-18T00:22:05.807Z,103.15
2022-12-18T00:25:09.545Z,90.05
2022-12-18T00:28:13.523Z,96.47
2022-12-18T00:31:20.380Z,83.00
2022-12-18T00:34:23.777Z,87.50
2022-12-18T00:37:29.494Z,115.07
2022-12-18T00:40:35.234Z,90.70
2022-12-18T00:43:41.347Z,76.20
2022-12-18T00:46:47.113Z,83.28
2022-12-18T00:49:52.240Z,78.50
2022-12-18T00:53:02.034Z,101.80
2022-12-18T00:56:07.447Z,81.68
2022-12-18T00:59:10.833Z,100.20
2022-12-18T01:02:15.754Z,87.53
2022-12-18T01:05:19.385Z,91.63
2022-12-18T01:08:23.322Z,95.13
2022-12-18T01:11:28.482Z,92.30
2022-12-18T01:14:33.253Z,131.75
2022-12-18T01:17:37.013Z,127.03
2022-12-18T01:20:40.621Z,100.38
2022-12-18T01:23:47.287Z,130.43
2022-12-18T01:26:50.986Z,86.67
2022-12-18T01:29:55.140Z,96.55
2022-12-18T01:32:59.448Z,99.28
2022-12-18T01:36:03.188Z,104.65
2022-12-18T01:39:13.898Z,121.88
2022-12-18T01:42:19.066Z,77.15
2022-12-18T01:45:29.575Z,87.93
2022-12-18T01:48:33.296Z,101.75
2022-12-18T01:51:37.233Z,86.97
2022-12-18T01:54:41.493Z,111.78
2022-12-18T01:57:45.430Z,82.80
2022-12-18T02:00:48.802Z,87.90
2022-12-18T02:03:52.499Z,119.13
2022-12-18T02:07:07.504Z,171.70
2022-12-18T02:10:25.613Z,190.15
2022-12-18T02:13:38.187Z,198.45
2022-12-18T02:17:04.997Z,170.52
2022-12-18T02:20:46.770Z,177.88
2022-12-18T02:23:58.822Z,226.95
2022-12-18T02:27:07.025Z,246.00
2022-12-18T02:30:10.817Z,195.82
2022-12-18T02:33:16.329Z,222.38
2022-12-18T02:36:23.509Z,242.32
2022-12-18T02:39:32.124Z,229.95
2022-12-18T02:42:40.127Z,216.90
2022-12-18T02:45:56.013Z,99.13
2022-12-18T02:49:29.268Z,189.50
2022-12-18T02:53:04.175Z,179.70
2022-12-18T02:56:25.790Z,171.32
2022-12-18T02:59:58.633Z,119.47
2022-12-18T03:03:20.545Z,81.07
2022-12-18T03:06:35.589Z,114.40
2022-12-18T03:09:42.963Z,134.73
2022-12-18T03:12:53.876Z,104.45
2022-12-18T03:16:00.251Z,129.75
2022-12-18T03:19:11.943Z,125.07
2022-12-18T03:22:18.965Z,115.65
2022-12-18T03:25:29.038Z,100.20
2022-12-18T03:28:35.505Z,141.68
2022-12-18T03:31:44.403Z,162.23
2022-12-18T03:34:52.356Z,149.57
2022-12-18T03:37:58.623Z,132.88
2022-12-18T03:41:24.946Z,116.57
2022-12-18T03:44:49.194Z,80.63
2022-12-18T03:47:59.820Z,105.97
2022-12-18T03:51:38.684Z,98.78
2022-12-18T03:54:44.566Z,110.32
2022-12-18T03:57:52.951Z,119.20
2022-12-18T04:01:01.703Z,118.70
2022-12-18T04:04:08.717Z,100.45
2022-12-18T04:07:16.339Z,119.75
2022-12-18T04:10:22.745Z,93.97
2022-12-18T04:13:34.026Z,135.77
2022-12-18T04:16:41.189Z,106.25
2022-12-18T04:19:47.619Z,94.90
2022-12-18T04:22:51.785Z,100.03
2022-12-18T04:25:56.845Z,127.93
2022-12-18T04:29:16.637Z,92.03
2022-12-18T04:32:20.108Z,98.57
2022-12-18T04:35:24.644Z,84.68
2022-12-18T04:38:28.438Z,111.07
2022-12-18T04:41:39.892Z,85.55
2022-12-18T04:44:43.282Z,103.68
2022-12-18T04:47:46.195Z,91.82
2022-12-18T04:50:49.940Z,116.25
2022-12-18T04:53:53.623Z,106.95
2022-12-18T04:56:57.734Z,111.93
2022-12-18T05:00:00.677Z,91.03
2022-12-18T05:03:04.262Z,85.47
2022-12-18T05:06:08.407Z,88.78
2022-12-18T05:09:11.753Z,96.40
2022-12-18T05:12:14.711Z,105.32
2022-12-18T05:15:18.101Z,99.22
2022-12-18T05:18:22.343Z,99.68
2022-12-18T05:21:26.111Z,85.82
2022-12-18T05:24:29.172Z,92.57
2022-12-18T05:27:34.434Z,113.93
2022-12-18T05:30:38.112Z,104.03
2022-12-18T05:33:42.355Z,119.13
2022-12-18T05:36:46.175Z,111.70
2022-12-18T05:39:49.866Z,104.07
2022-12-18T05:42:53.314Z,120.35
2022-12-18T05:45:58.460Z,103.55
2022-12-18T05:49:05.084Z,81.40
2022-12-18T05:52:08.122Z,109.63
2022-12-18T05:55:11.349Z,98.30
2022-12-18T05:58:21.939Z,120.32
2022-12-18T06:01:28.312Z,115.43
2022-12-18T06:04:31.353Z,91.50
2022-12-18T06:07:34.462Z,115.57
2022-12-18T06:10:37.662Z,114.68
2022-12-18T06:13:41.655Z,105.40
2022-12-18T06:16:45.369Z,96.55
2022-12-18T06:19:48.956Z,93.35
2022-12-18T06:22:53.028Z,83.78
2022-12-18T06:25:57.545Z,86.22
2022-12-18T06:29:01.561Z,80.70
2022-12-18T06:32:06.492Z,85.20
2022-12-18T06:35:11.637Z,81.50
2022-12-18T06:38:15.585Z,84.10
2022-12-18T06:41:22.423Z,89.90
2022-12-18T06:44:25.635Z,91.35
2022-12-18T06:47:28.901Z,90.30
2022-12-18T06:50:31.929Z,95.32
2022-12-18T06:53:35.532Z,85.90
2022-12-18T06:56:38.616Z,83.20
2022-12-18T06:59:42.594Z,85.22
2022-12-18T07:02:45.617Z,83.10
2022-12-18T07:05:49.432Z,78.20
2022-12-18T07:08:53.810Z,69.10
2022-12-18T07:11:57.914Z,62.33
2022-12-18T07:15:01.457Z,68.55
2022-12-18T07:18:05.150Z,65.22
2022-12-18T07:21:10.252Z,61.15
2022-12-18T07:24:13.504Z,53.45
2022-12-18T07:27:17.154Z,52.90
2022-12-18T07:30:20.722Z,60.63
2022-12-18T07:33:24.475Z,58.60
2022-12-18T07:36:28.299Z,71.90
2022-12-18T07:39:31.590Z,68.40
2022-12-18T07:42:36.270Z,80.60
2022-12-18T07:45:40.187Z,58.60
2022-12-18T07:48:45.234Z,59.42
2022-12-18T07:51:52.235Z,76.10
2022-12-18T07:54:55.541Z,70.93
2022-12-18T07:58:01.993Z,65.47
2022-12-18T08:01:10.184Z,82.47
2022-12-18T08:04:15.714Z,98.57
2022-12-18T08:07:18.785Z,70.80
2022-12-18T08:10:22.905Z,66.88
2022-12-18T08:13:26.713Z,98.15
2022-12-18T08:16:30.055Z,61.58
2022-12-18T08:19:34.581Z,79.13
2022-12-18T08:22:39.203Z,79.68
2022-12-18T08:25:42.676Z,72.28
2022-12-18T08:28:45.834Z,87.35
2022-12-18T08:31:49.850Z,77.70
2022-12-18T08:34:53.341Z,70.20
2022-12-18T08:37:56.972Z,79.18
2022-12-18T08:41:13.229Z,60.50
2022-12-18T08:44:34.718Z,72.93
2022-12-18T08:47:38.910Z,61.28
2022-12-18T08:50:42.027Z,56.90
2022-12-18T08:53:46.601Z,64.60
2022-12-18T08:56:49.658Z,65.40
2022-12-18T08:59:52.932Z,35.88
2022-12-18T09:02:56.129Z,68.32
2022-12-18T09:05:59.696Z,67.32
2022-12-18T09:09:03.144Z,37.35
2022-12-18T09:12:06.512Z,47.80
2022-12-18T09:15:09.919Z,34.95
2022-12-18T09:18:14.697Z,63.08
2022-12-18T09:21:21.378Z,49.08
2022-12-18T09:24:24.399Z,55.85
2022-12-18T09:27:28.060Z,51.53
2022-12-18T09:30:31.983Z,70.05
2022-12-18T09:33:39.101Z,59.90
2022-12-18T09:36:43.383Z,42.67
2022-12-18T09:39:47.562Z,31.48
2022-12-18T09:42:57.664Z,76.15
2022-12-18T09:46:06.482Z,80.15
2022-12-18T09:49:16.252Z,67.03
2022-12-18T09:52:36.026Z,30.65
2022-12-18T09:55:43.854Z,59.90
2022-12-18T09:59:00.717Z,33.28
2022-12-18T10:02:24.135Z,49.22
2022-12-18T10:05:56.643Z,57.00
2022-12-18T10:09:11.890Z,42.00
2022-12-18T10:12:25.462Z,39.17
2022-12-18T10:15:46.343Z,40.72
2022-12-18T10:19:24.327Z,42.97
2022-12-18T10:22:37.873Z,41.97
2022-12-18T10:25:47.530Z,43.25
2022-12-18T10:28:51.925Z,41.03
2022-12-18T10:31:56.238Z,38.70
2022-12-18T10:35:01.132Z,14.23
2022-12-18T10:38:14.243Z,32.00
2022-12-18T10:41:21.720Z,41.60
2022-12-18T10:44:29.167Z,29.73
2022-12-18T10:47:36.196Z,39.17
2022-12-18T10:54:08.162Z,38.78
2022-12-18T10:57:29.198Z,40.70
2022-12-18T11:00:33.256Z,34.47
2022-12-18T11:03:43.954Z,32.45
2022-12-18T11:07:07.446Z,42.55
2022-12-18T11:10:20.819Z,28.17
2022-12-18T11:13:27.659Z,31.50
2022-12-18T11:16:38.821Z,19.00
2022-12-18T11:19:43.552Z,27.02
2022-12-18T11:23:00.758Z,30.85
2022-12-18T11:26:08.078Z,30.20
2022-12-18T11:29:18.897Z,26.27
2022-12-18T11:32:27.559Z,45.22
2022-12-18T11:35:57.054Z,38.25
2022-12-18T11:39:17.726Z,24.75
2022-12-18T11:42:53.200Z,41.22
2022-12-18T11:46:19.974Z,58.90
2022-12-18T11:49:38.191Z,69.03
2022-12-18T11:52:43.083Z,93.75
2022-12-18T11:55:58.220Z,62.33
2022-12-18T11:59:27.721Z,65.07
2022-12-18T12:02:47.884Z,80.32
2022-12-18T12:06:13.589Z,100.10
2022-12-18T12:09:44.767Z,78.30
2022-12-18T12:13:15.013Z,91.68
2022-12-18T12:20:36.567Z,115.53
2022-12-18T12:23:45.853Z,106.35
2022-12-18T12:27:35.455Z,91.85
2022-12-18T12:31:06.502Z,140.93
2022-12-18T12:34:57.642Z,152.75
2022-12-18T12:38:15.806Z,176.00
2022-12-18T12:41:44.160Z,179.00
2022-12-18T12:44:57.360Z,165.65
2022-12-18T12:48:04.105Z,146.25
2022-12-18T12:51:25.710Z,137.93
2022-12-18T12:54:30.627Z,120.28
2022-12-18T12:57:39.628Z,197.68
2022-12-18T13:01:03.378Z,135.25
2022-12-18T13:04:25.636Z,125.78
2022-12-18T13:07:41.695Z,66.32
2022-12-18T13:10:46.787Z,102.90
2022-12-18T13:13:52.864Z,93.95
2022-12-18T13:17:31.023Z,91.75
2022-12-18T13:20:40.327Z,71.95
2022-12-18T13:23:44.270Z,142.65
2022-12-18T13:26:47.813Z,137.45
2022-12-18T13:29:54.154Z,124.30
2022-12-18T13:33:15.561Z,68.50
2022-12-18T13:36:30.065Z,121.38
2022-12-18T13:39:35.919Z,153.00
2022-12-18T13:43:00.328Z,164.10
2022-12-18T13:46:06.887Z,141.93
2022-12-18T13:49:16.951Z,150.52
2022-12-18T13:52:24.484Z,183.48
2022-12-18T13:55:28.844Z,187.63
2022-12-18T13:58:32.482Z,189.90
2022-12-18T14:01:37.044Z,156.70
2022-12-18T14:04:45.137Z,199.27
2022-12-18T14:07:57.249Z,148.23
2022-12-18T14:11:07.600Z,168.90
2022-12-18T14:14:21.858Z,126.43
2022-12-18T14:21:08.486Z,140.10
2022-12-18T14:24:25.612Z,181.25
2022-12-18T14:27:35.671Z,266.75
2022-12-18T14:30:49.818Z,244.32
2022-12-18T14:33:58.235Z,230.38
2022-12-18T14:37:10.034Z,222.05
2022-12-18T14:40:16.582Z,214.80
2022-12-18T14:43:20.430Z,260.42
2022-12-18T14:46:42.377Z,236.02
2022-12-18T14:49:54.766Z,152.68
2022-12-18T14:53:06.658Z,214.88
2022-12-18T14:56:29.263Z,195.85
2022-12-18T14:59:41.106Z,163.68
2022-12-18T15:02:59.363Z,158.45
2022-12-18T15:06:46.888Z,234.88
2022-12-18T15:10:07.076Z,193.90
2022-12-18T15:13:28.395Z,270.45
2022-12-18T15:16:42.214Z,180.70
2022-12-18T15:19:56.191Z,210.48
2022-12-18T15:23:09.530Z,186.80
2022-12-18T15:26:20.291Z,203.65
2022-12-18T15:29:32.411Z,181.68
2022-12-18T15:32:48.405Z,218.25
2022-12-18T15:36:08.992Z,178.30
2022-12-18T15:39:16.303Z,180.65
2022-12-18T15:42:43.956Z,210.18
2022-12-18T15:45:56.738Z,126.30
2022-12-18T15:49:08.164Z,140.45
2022-12-18T15:52:17.370Z,171.63
2022-12-18T15:55:43.210Z,193.90
2022-12-18T15:58:47.556Z,186.35
2022-12-18T16:01:57.712Z,183.95
2022-12-18T16:05:01.995Z,170.32
2022-12-18T16:08:06.341Z,170.48
2022-12-18T16:11:39.736Z,172.25
2022-12-18T16:14:43.847Z,242.73
2022-12-18T16:17:49.374Z,281.00
2022-12-18T16:20:53.310Z,247.32
2022-12-18T16:23:57.574Z,191.55
2022-12-18T16:27:04.030Z,202.63
2022-12-18T16:30:16.230Z,186.95
2022-12-18T16:33:22.895Z,164.15
2022-12-18T16:36:27.703Z,124.35
2022-12-18T16:39:35.271Z,154.07
2022-12-18T16:42:42.935Z,218.35
2022-12-18T16:45:49.093Z,291.70
2022-12-18T16:48:55.775Z,203.90
2022-12-18T16:52:01.815Z,289.95
2022-12-18T16:55:06.278Z,213.05
2022-12-18T16:58:10.825Z,165.75
2022-12-18T17:01:14.423Z,158.93
2022-12-18T17:04:18.602Z,217.00
2022-12-18T17:07:22.661Z,277.85
2022-12-18T17:10:28.896Z,183.30
2022-12-18T17:13:35.665Z,231.10
2022-12-18T17:16:41.844Z,229.82
2022-12-18T17:19:46.581Z,225.87
2022-12-18T17:22:50.568Z,226.52
2022-12-18T17:26:00.369Z,265.63
2022-12-18T17:29:05.655Z,198.80
2022-12-18T17:32:10.716Z,188.07
2022-12-18T17:35:14.728Z,136.20
2022-12-18T17:38:18.791Z,172.90
2022-12-18T17:41:23.067Z,131.93
2022-12-18T17:44:27.721Z,139.38
2022-12-18T17:47:32.001Z,111.53
2022-12-18T17:50:36.915Z,125.78
2022-12-18T17:53:42.427Z,146.80
2022-12-18T17:56:48.235Z,101.28
2022-12-18T17:59:53.696Z,131.68
2022-12-18T18:03:00.011Z,133.57
2022-12-18T18:06:06.046Z,112.03
2022-12-18T18:09:15.934Z,85.50
2022-12-18T18:12:40.201Z,128.57
2022-12-18T18:15:44.702Z,139.93
2022-12-18T18:18:49.869Z,164.80
2022-12-18T18:21:55.291Z,210.30
2022-12-18T18:25:01.234Z,161.40
2022-12-18T18:28:06.173Z,158.45
2022-12-18T18:31:12.201Z,271.50
2022-12-18T18:34:18.836Z,150.20
2022-12-18T18:37:23.199Z,155.55
2022-12-18T18:40:28.639Z,186.98
2022-12-18T18:43:34.435Z,147.63
2022-12-18T18:46:40.435Z,103.93
2022-12-18T18:49:47.122Z,147.77
2022-12-18T18:52:52.925Z,76.93
2022-12-18T18:56:40.825Z,143.88
2022-12-18T18:59:31.940Z,109.03
2022-12-18T19:02:37.034Z,115.57
2022-12-18T19:05:44.458Z,136.88
2022-12-18T19:08:54.060Z,105.55
2022-12-18T19:12:17.787Z,141.93
2022-12-18T19:15:22.779Z,178.60
2022-12-18T19:18:28.137Z,141.48
2022-12-18T19:21:34.365Z,150.25
2022-12-18T19:24:40.877Z,172.52
2022-12-18T19:27:44.814Z,154.40
2022-12-18T19:30:49.819Z,107.03
2022-12-18T19:33:54.602Z,101.45
2022-12-18T19:37:00.227Z,94.50
2022-12-18T19:40:12.346Z,152.40
2022-12-18T19:43:18.274Z,135.68
2022-12-18T19:46:30.379Z,136.98
2022-12-18T19:49:44.044Z,66.28
2022-12-18T19:52:49.918Z,108.25
2022-12-18T19:55:53.867Z,103.43
2022-12-18T19:59:02.715Z,97.35
2022-12-18T20:02:11.371Z,122.68
2022-12-18T20:05:19.726Z,92.82
2022-12-18T20:08:28.983Z,106.25
2022-12-18T20:11:41.773Z,113.07
2022-12-18T20:14:46.494Z,96.10
2022-12-18T20:17:50.407Z,107.43
2022-12-18T20:20:55.200Z,122.13
2022-12-18T20:24:02.012Z,107.78
2022-12-18T20:27:07.704Z,112.47
2022-12-18T20:30:14.250Z,128.68
2022-12-18T20:33:17.625Z,118.63
2022-12-18T20:36:26.932Z,113.95
2022-12-18T20:39:30.922Z,103.68
2022-12-18T20:42:34.719Z,92.18
2022-12-18T20:45:39.412Z,90.85
2022-12-18T20:48:46.167Z,90.18
2022-12-18T20:51:54.337Z,81.45
2022-12-18T20:54:58.840Z,124.10
2022-12-18T20:58:03.941Z,108.95
2022-12-18T21:01:10.737Z,104.35
2022-12-18T21:04:14.027Z,94.75
2022-12-18T21:07:18.473Z,91.95
2022-12-18T21:10:22.243Z,96.85
2022-12-18T21:13:26.224Z,90.68
2022-12-18T21:16:32.516Z,108.00
2022-12-18T21:19:36.313Z,99.10
2022-12-18T21:22:40.613Z,67.45
2022-12-18T21:25:43.670Z,103.72
2022-12-18T21:28:47.449Z,85.40
2022-12-18T21:31:53.154Z,83.32
2022-12-18T21:34:56.873Z,67.13
2022-12-18T21:37:59.930Z,69.40
2022-12-18T21:41:08.727Z,58.95
2022-12-18T21:44:14.652Z,53.70
2022-12-18T21:47:22.843Z,71.80
2022-12-18T21:50:27.119Z,83.47
2022-12-18T21:53:30.949Z,54.03
2022-12-18T21:57:05.236Z,62.75
2022-12-18T22:00:19.107Z,100.32
2022-12-18T22:03:23.719Z,80.50
2022-12-18T22:06:27.908Z,92.28
2022-12-18T22:09:32.804Z,80.10
2022-12-18T22:12:42.942Z,75.35
2022-12-18T22:15:48.397Z,74.47
2022-12-18T22:18:52.513Z,68.88
2022-12-18T22:21:55.919Z,72.45
2022-12-18T22:24:59.989Z,88.40
2022-12-18T22:28:21.674Z,96.05
2022-12-18T22:31:25.470Z,87.65
2022-12-18T22:34:28.829Z,49.47
2022-12-18T22:37:32.980Z,67.63
2022-12-18T22:40:39.003Z,83.32
2022-12-18T22:43:43.517Z,81.57
2022-12-18T22:46:52.316Z,63.33
2022-12-18T22:50:07.471Z,78.90
2022-12-18T22:53:11.289Z,60.78
2022-12-18T22:56:20.235Z,76.40
2022-12-18T22:59:25.049Z,92.50
2022-12-18T23:02:28.568Z,74.65
2022-12-18T23:05:32.789Z,75.35
2022-12-18T23:08:37.550Z,103.82
2022-12-18T23:11:40.566Z,70.32
2022-12-18T23:14:45.029Z,50.75
2022-12-18T23:17:48.711Z,74.03
2022-12-18T23:20:53.110Z,58.17
2022-12-18T23:23:57.708Z,53.15
2022-12-18T23:27:01.441Z,58.53
2022-12-18T23:30:08.414Z,66.28
2022-12-18T23:33:12.068Z,67.28
2022-12-18T23:36:16.456Z,97.05
2022-12-18T23:39:28.758Z,76.57
2022-12-18T23:42:32.242Z,108.15
2022-12-18T23:45:39.105Z,140.40
2022-12-18T23:48:43.178Z,151.40
2022-12-18T23:51:46.426Z,136.98
2022-12-18T23:54:50.381Z,147.63
2022-12-18T23:57:53.629Z,104.15
